Latest Coastal Weather Observations for Mackay

IDQ60701

Issued at 11:45 pm EST Thursday 23 October 2014 (issued every 10 minutes, with the page automatically refreshed every 10 minutes)

About coastal observations | Map of coastal stations | Coastal observations for QLD | Marine services | Other Formats
Station Details ID: 033119 Name: MACKAY M.O Lat: -21.12 Lon: 149.22 Height: 30.26 m
Data from the previous 72 hours. | See also: Recent months at Mackay
Date/Time
EST
Temp

°C
Wind Pressure Rain
since 9am
mm
Weather Cloud Vis
km
Sea
Height
m
Swell
Dir
 
Speed
knots
Gust
knots
hPa Trend Height
m
Period
s
Dir
23/11:30pm 18.2 WSW 5 7 1020.3 - 0.0 - - - - - - -
23/11:00pm 20.1 S 3 6 1020.6 - 0.0 - - - - - - -
23/10:30pm 21.4 E 5 7 1020.5 - 0.0 - - - - - - -
23/10:00pm 21.6 ESE 5 8 1020.4 - 0.0 - - - - - - -
23/09:30pm 21.7 E 6 10 1020.1 - 0.0 - - - - - - -
23/09:00pm 21.7 ESE 6 9 1020.0 S 0.0 - - - - - - -
23/08:30pm 21.8 E 7 11 1019.6 - 0.0 - - - - - - -
23/08:00pm 21.9 ESE 7 11 1019.5 - 0.0 - - - - - - -
23/07:30pm 22.0 E 8 13 1019.2 - 0.0 - Partly cloudy - - - - -
23/07:00pm 21.9 ESE 7 11 1019.0 - 0.0 - - - - - - -
23/06:30pm 22.1 E 6 10 1018.5 - 0.0 - - - - - - -
23/06:00pm 22.3 ESE 6 9 1018.3 R 0.0 - - - - - - -
23/05:30pm 22.8 ESE 6 11 1018.0 - 0.0 - - - - - - -
23/05:00pm 23.3 ESE 7 10 1017.6 - 0.0 - Mostly clear 10 - - - -
23/04:30pm 24.0 ESE 7 11 1017.5 - 0.0 - Mostly clear 10 - - - -
23/04:00pm 24.0 ESE 7 11 1017.2 - 0.0 - Mostly clear 10 - - - -
23/03:30pm 25.0 SE 9 13 1017.4 - 0.0 - Mostly clear 10 - - - -
23/03:00pm 25.4 SE 9 15 1017.5 R 0.0 Fine Partly cloudy 25 - - - -
23/02:30pm 25.5 SE 9 13 1017.6 - 0.0 - Mostly clear 10 - - - -
23/02:00pm 25.4 SE 9 15 1017.8 - 0.0 - Partly cloudy - - - - -
23/01:30pm 25.6 SE 9 16 1017.9 - 0.0 - Mostly clear 10 - - - -
23/01:00pm 25.2 SE 9 15 1018.4 - 0.0 - Mostly clear 10 - - - -
23/12:30pm 25.6 SE 9 18 1018.8 - 0.0 - Mostly clear 10 - - - -
23/12:00pm 25.6 SE 10 15 1019.4 R 0.0 Fine Partly cloudy 25 - - - -
23/11:30am 26.1 SE 9 18 1019.6 - 0.0 - Mostly clear 10 - - - -
23/11:00am 26.2 SE 10 16 1019.8 - 0.0 - Mostly clear 10 - - - -
23/10:30am 25.6 SSE 10 18 1020.3 - 0.0 - Mostly clear 10 - - - -
23/10:00am 25.2 SE 10 16 1020.4 - 0.0 - Mostly clear 10 - - - -
23/09:30am 25.5 SSE 11 17 1020.3 - 0.0 - Mostly clear 10 - - - -
23/09:00am 24.5 SSE 11 18 1020.2 F 0.0 Fine Mostly clear 20 - - - -
23/08:30am 23.5 SE 11 18 1020.0 - 0.0 - Mostly clear 10 - - - -
23/08:00am 22.9 SSE 10 18 1020.1 - 0.0 - Mostly clear 10 - - - -
23/07:30am 22.4 SSE 11 15 1020.0 - 0.0 - Mostly clear 10 - - - -
23/07:00am 21.2 S 9 13 1019.5 - 0.0 - Mostly clear 10 - - - -
23/06:30am 19.2 S 9 12 1019.4 - 0.0 - Mostly clear 10 - - - -
23/06:00am 17.8 S 8 10 1019.3 F 0.0 Fine Mostly clear 25 - - - -
23/05:30am 17.5 SSW 7 9 1019.1 - 0.0 - - - - - - -
23/05:00am 18.2 SSW 8 10 1018.8 - 0.0 - - - - - - -
23/04:30am 17.6 SSW 7 9 1018.7 - 0.0 - Partly cloudy - - - - -
23/04:00am 18.9 S 7 9 1018.6 - 0.0 - Partly cloudy - - - - -
23/03:30am 19.9 S 7 11 1018.6 - 0.0 - Partly cloudy - - - - -
23/03:00am 21.4 SE 7 11 1018.7 - 0.0 - - - - - - -
23/02:30am 21.5 SE 8 12 1018.9 - 0.0 - - - - - - -
23/02:00am 21.7 SE 7 11 1019.2 - 0.0 - Partly cloudy - - - - -
23/01:30am 22.0 SE 7 12 1019.6 - 0.0 - Partly cloudy - - - - -
23/01:00am 22.1 ESE 9 13 1020.0 - 0.0 - Partly cloudy - - - - -
23/12:30am 22.3 E 8 12 1020.3 - 0.0 - Partly cloudy - - - - -
23/12:00am 22.2 E 8 13 1020.6 - 0.0 - Mostly clear - - - - -
 
Date/Time
EST
Temp

°C
Wind Pressure Rain
since 9am
mm
Weather Cloud Vis
km
Sea
Height
m
Swell
Dir
 
Speed
knots
Gust
knots
hPa Trend Height
m
Period
s
Dir
22/11:30pm 22.1 E 7 14 1020.7 - 0.0 - Partly cloudy - - - - -
22/11:00pm 22.3 ESE 8 13 1020.8 - 0.0 - Partly cloudy - - - - -
22/10:30pm 22.5 ESE 10 15 1020.8 - 0.0 - Partly cloudy - - - - -
22/10:00pm 22.5 ESE 9 16 1020.7 - 0.0 - Partly cloudy - - - - -
22/09:30pm 22.4 ESE 9 15 1020.6 - 0.0 - - - - - - -
22/09:00pm 22.4 ESE 11 17 1020.5 F 0.0 - - - - - - -
22/08:30pm 22.4 ESE 11 19 1020.3 - 0.0 - - - - - - -
22/08:00pm 22.3 ESE 11 19 1020.1 - 0.0 - - - - - - -
22/07:30pm 22.3 ESE 10 17 1019.9 - 0.0 - Partly cloudy - - - - -
22/07:00pm 22.2 ESE 9 15 1019.8 - 0.0 - - - - - - -
22/06:30pm 22.3 E 11 17 1019.6 - 0.0 - Partly cloudy - - - - -
22/06:00pm 22.6 ESE 9 16 1019.4 R 0.0 - Mostly clear - - - - -
22/05:30pm 23.0 ESE 9 18 1019.2 - 0.0 - Partly cloudy - - - - -
22/05:00pm 23.7 ESE 10 16 1018.9 - 0.0 - Partly cloudy - - - - -
22/04:30pm 24.1 SE 10 17 1018.8 - 0.0 - - - - - - -
22/04:00pm 24.5 ESE 10 14 1018.5 - 0.0 - Mostly clear 10 - - - -
22/03:30pm 24.7 ESE 10 15 1018.4 - 0.0 - Mostly clear 10 - - - -
22/03:00pm 24.9 ESE 11 17 1018.6 R 0.0 Haze Mostly clear 15 - - - -
22/02:30pm 25.3 SE 10 19 1018.8 - 0.0 - Partly cloudy 10 - - - -
22/02:00pm 25.6 SE 11 17 1019.2 - 0.0 - Partly cloudy 10 - - - -
22/01:30pm 26.4 SE 10 18 1019.4 - 0.0 - Partly cloudy 10 - - - -
22/01:00pm 26.1 SE 10 17 1019.7 - 0.0 - Partly cloudy 10 - - - -
22/12:30pm 26.0 SE 11 16 1020.1 - 0.0 - Mostly clear 10 - - - -
22/12:00pm 25.5 SE 9 15 1020.6 F 0.0 Haze Mostly clear 18 - - - -
22/11:30am 26.7 SE 9 13 1020.9 - 0.0 - Partly cloudy 10 - - - -
22/11:00am 26.1 SE 10 15 1021.3 - 0.0 - Partly cloudy 10 - - - -
22/10:30am 25.7 SE 10 15 1021.6 - 0.0 - Partly cloudy 10 - - - -
22/10:00am 25.3 SE 10 15 1021.7 - 0.0 - Partly cloudy 10 - - - -
22/09:30am 24.3 ESE 9 15 1021.8 - 0.0 - Partly cloudy 10 - - - -
22/09:00am 24.8 ESE 9 15 1021.8 F 0.2 Haze Partly cloudy 20 - - - -
22/08:30am 25.0 ESE 9 16 1021.9 - 0.2 - Mostly clear 10 - - - -
22/08:00am 23.8 ESE 9 15 1021.6 - 0.2 - Mostly clear 10 - - - -
22/07:30am 23.7 ESE 11 21 1021.4 - 0.2 - Mostly clear 10 - - - -
22/07:00am 23.4 ESE 10 16 1021.2 - 0.2 - - - - - - -
22/06:30am 22.7 ESE 11 18 1020.9 - 0.2 - - - - - - -
22/06:00am 22.2 ESE 11 17 1020.6 F 0.2 - - - - - - -
22/05:30am 21.8 SE 12 19 1020.2 - 0.2 - - - - - - -
22/05:00am 22.0 ESE 12 18 1020.1 - 0.2 - - - - - - -
22/04:30am 21.8 ESE 11 17 1020.1 - 0.2 - Partly cloudy - - - - -
22/04:00am 21.7 ESE 11 19 1020.0 - 0.2 - Partly cloudy - - - - -
22/03:30am 21.5 SE 11 16 1020.1 - 0.2 - - - - - - -
22/03:00am 21.6 SE 13 18 1020.0 - 0.2 - - - - - - -
22/02:30am 21.6 SE 13 20 1020.1 - 0.2 - - - - - - -
22/02:00am 21.8 SE 11 19 1020.3 - 0.2 - Partly cloudy - - - - -
22/01:30am 21.8 SE 11 19 1020.8 - 0.2 - Partly cloudy - - - - -
22/01:00am 21.9 SE 12 17 1021.2 - 0.2 - Partly cloudy - - - - -
22/12:30am 22.0 SE 12 20 1021.5 - 0.2 - Partly cloudy - - - - -
22/12:00am 21.9 SE 11 21 1021.9 - 0.2 - Mostly clear - - - - -
 
Date/Time
EST
Temp

°C
Wind Pressure Rain
since 9am
mm
Weather Cloud Vis
km
Sea
Height
m
Swell
Dir
 
Speed
knots
Gust
knots
hPa Trend Height
m
Period
s
Dir
21/11:30pm 21.9 SE 12 20 1022.3 - 0.2 - - - - - - -
21/11:00pm 22.0 SE 12 19 1022.3 - 0.2 - Partly cloudy - - - - -
21/10:30pm 22.0 SE 13 19 1022.4 - 0.2 - - - - - - -
21/10:00pm 22.0 SE 13 21 1022.4 - 0.2 - - - - - - -
21/09:30pm 22.1 SE 12 20 1022.3 - 0.2 - - - - - - -
21/09:00pm 22.2 ESE 13 22 1022.2 F 0.2 - - - - - - -
21/08:30pm 22.2 SE 12 19 1022.0 - 0.2 - - - - - - -
21/08:00pm 22.1 SE 11 18 1021.8 - 0.2 - - - - - - -
21/07:30pm 22.2 SE 12 19 1021.7 - 0.2 - - - - - - -
21/07:00pm 22.4 SE 13 21 1021.5 - 0.2 - - - - - - -
21/06:30pm 22.5 ESE 15 21 1021.2 - 0.2 - - - - - - -
21/06:00pm 22.6 ESE 13 20 1020.9 R 0.2 - Mostly clear - - - - -
21/05:30pm 22.9 ESE 12 19 1020.6 - 0.2 - - - - - - -
21/05:00pm 23.3 SE 11 20 1020.4 - 0.2 - - - - - - -
21/04:30pm 23.3 SE 12 17 1020.2 - 0.2 - Partly cloudy - - - - -
21/04:00pm 24.0 ESE 11 18 1020.1 - 0.2 - Partly cloudy 10 - - - -
21/03:30pm 24.1 SE 12 18 1020.1 - 0.2 - Partly cloudy 10 - - - -
21/03:00pm 25.1 SE 11 19 1020.1 R 0.2 Showers Partly cloudy 15 - - - -
21/02:30pm 24.4 SE 12 19 1020.3 - 0.2 - Partly cloudy 10 - - - -
21/02:00pm 23.7 SE 11 18 1020.7 - 0.2 - Partly cloudy 10 - - - -
21/01:30pm 20.8 ENE 8 13 1021.3 - 0.2 - Mostly clear 10 - - - -
21/01:00pm 21.9 SE 12 21 1021.5 - 0.0 - Mostly clear 7 - - - -
21/12:30pm 23.3 ESE 11 18 1021.8 - 0.0 - Mostly clear 10 - - - -
21/12:00pm 25.2 SSE 12 19 1021.9 R 0.0 Showers Mostly cloudy 18 - - - -
21/11:30am 26.2 SE 11 18 1022.2 - 0.0 - Mostly clear 10 - - - -
21/11:00am 26.5 SE 11 18 1022.3 - 0.0 - Mostly clear 10 - - - -
21/10:30am 26.0 SE 11 18 1022.5 - 0.0 - - - - - - -
21/10:00am 25.5 SE 12 20 1022.5 - 0.0 - - - - - - -
21/09:30am 25.2 SE 12 18 1022.2 - 0.0 - Partly cloudy - - - - -
21/09:00am 25.1 ESE 10 16 1022.3 R 0.4 Rain Partly cloudy - - - - -
21/08:30am 25.0 SE 9 16 1022.0 - 0.2 - Partly cloudy - - - - -
21/08:00am 22.6 S 11 17 1022.1 - 0.2 - Partly cloudy - - - - -
21/07:30am 22.2 S 10 15 1021.7 - 0.2 - Partly cloudy - - - - -
21/07:00am 22.9 SE 12 18 1021.3 - 0.2 - Partly cloudy - - - - -
21/06:30am 21.8 SE 11 18 1020.8 - 0.2 - Partly cloudy - - - - -
21/06:00am 20.8 SE 9 16 1020.5 F 0.2 Recent precip. Partly cloudy - - - - -
21/05:30am 21.4 SE 11 22 1020.2 - 0.0 - Partly cloudy - - - - -
21/05:00am 21.6 SE 9 15 1019.8 - 0.0 - Partly cloudy - - - - -
21/04:30am 21.8 SE 9 15 1019.7 - 0.0 - Partly cloudy - - - - -
21/04:00am 22.0 ESE 8 12 1019.6 - 0.0 - Partly cloudy - - - - -
21/03:30am 21.7 ESE 9 14 1019.7 - 0.0 - - - - - - -
21/03:00am 21.7 ESE 9 14 1019.6 - 0.0 - Mostly clear - - - - -
21/02:30am 21.8 SE 10 16 1019.7 - 0.0 - Partly cloudy - - - - -
21/02:00am 21.6 SE 9 15 1019.7 - 0.0 - - - - - - -
21/01:30am 21.9 ESE 9 14 1020.0 - 0.0 - Partly cloudy - - - - -
21/01:00am 21.9 ESE 10 15 1020.4 - 0.0 - Partly cloudy - - - - -
21/12:30am 21.9 ESE 9 15 1020.8 - 0.0 - Partly cloudy - - - - -
21/12:00am 21.9 ESE 11 16 1021.2 - 0.0 - - - - - - -

Other Formats:

Comma delimited format used in spreadsheet applications
http://www.bom.gov.au/fwo/IDQ60701/IDQ60701.94367.axf

JavaScript Object Notation format (JSON) in row-major order
http://www.bom.gov.au/fwo/IDQ60701/IDQ60701.94367.json